Terminal Aerodrome Forecast
Issued by NWS

Home | Current Version | Previous Version | Text Only | Print | Product List | Glossary On
Versions: 1 2 3 4 5 6 7 8 9 10 11 12 13 14 15 16 17 18 19
000
FTAK31 PAJN 292340
TAFAJN
TAF
PAJN 292340Z 3000/3024 23010KT P6SM FEW030 BKN180
     FM300300 VRB03KT P6SM BKN160
     FM300900 08003KT P6SM BKN120
     FM301800 13008KT P6SM VCSH BKN060 OVC100
     FM302300 12008KT P6SM -SHRA BKN040 OVC060=

USA.gov is the U.S. government's official web portal to all federal, state and local government web resources and services.